Time;durP1;ratioP1;P1;durP2;ratioP2;P2;SDS_P1;SDS_P2;PMS_P1;PMS_P2;Temp;Humidity;BMP_temperature;BMP_pressure;BME280_temperature;BME280_humidity;BME280_pressure;Samples;Min_cycle;Max_cycle;Signal;HPM_P1;HPM_P2
2022/04/06 00:01:14;;;;;;;7.93;7.13;;;;;;;3.27;66.74;97637.22;5029331;28;20389;-65
2022/04/06 00:03:40;;;;;;;9.25;6.95;;;;;;;3.23;66.77;97627.88;5029958;28;20063;-65
2022/04/06 00:06:06;;;;;;;9.48;7.32;;;;;;;3.27;66.98;97631.91;5030452;28;20038;-66
2022/04/06 00:08:32;;;;;;;9.50;7.78;;;;;;;3.27;67.41;97639.84;5030309;28;20040;-66
2022/04/06 00:10:59;;;;;;;8.48;6.93;;;;;;;3.28;66.98;97633.59;5029922;28;20217;-63
2022/04/06 00:13:25;;;;;;;7.55;6.72;;;;;;;3.30;66.65;97631.66;5030397;28;20025;-65
2022/04/06 00:15:50;;;;;;;8.98;7.20;;;;;;;3.31;66.72;97627.22;5030011;28;20385;-65
2022/04/06 00:18:16;;;;;;;9.35;7.30;;;;;;;3.32;67.04;97630.69;5030172;28;20049;-66
2022/04/06 00:20:42;;;;;;;9.30;7.57;;;;;;;3.33;66.99;97635.00;5030228;28;20030;-66
2022/04/06 00:23:08;;;;;;;8.45;7.30;;;;;;;3.39;67.00;97639.78;5030190;28;20041;-65
2022/04/06 00:25:34;;;;;;;9.73;6.90;;;;;;;3.34;66.59;97629.59;5030439;28;20057;-65
2022/04/06 00:28:00;;;;;;;8.20;6.80;;;;;;;3.40;66.40;97641.47;5030268;28;20497;-64
2022/04/06 00:30:25;;;;;;;11.00;7.13;;;;;;;3.42;66.26;97655.38;5029844;28;20050;-65
2022/04/06 00:32:51;;;;;;;10.95;7.13;;;;;;;3.39;66.05;97650.38;5030374;28;20044;-65
2022/04/06 00:35:28;;;;;;;7.72;6.85;;;;;;;3.41;66.59;97651.88;5033613;28;20032;-65
2022/04/06 00:37:59;;;;;;;8.65;7.32;;;;;;;3.46;66.19;97664.72;5033714;28;20120;-64
2022/04/06 00:40:25;;;;;;;9.07;7.53;;;;;;;3.41;65.46;97666.94;5032509;28;20033;-65
2022/04/06 00:42:53;;;;;;;7.45;6.38;;;;;;;3.42;65.26;97665.97;5033823;28;20044;-64
2022/04/06 00:45:19;;;;;;;8.57;6.88;;;;;;;3.39;65.37;97660.94;5033223;28;20424;-65
2022/04/06 00:47:45;;;;;;;8.85;6.82;;;;;;;3.39;65.31;97672.34;5033523;28;20036;-65
2022/04/06 00:50:10;;;;;;;8.63;7.13;;;;;;;3.39;65.00;97667.06;5033810;28;20034;-63
2022/04/06 00:52:36;;;;;;;8.20;7.05;;;;;;;3.25;65.62;97652.38;5033382;28;20441;-66
2022/04/06 00:55:02;;;;;;;7.82;7.00;;;;;;;3.30;65.27;97660.75;5033236;28;20033;-63
2022/04/06 00:57:29;;;;;;;8.60;6.82;;;;;;;3.35;65.29;97672.72;5033553;28;20037;-66
2022/04/06 00:59:59;;;;;;;7.95;6.90;;;;;;;3.41;65.05;97673.06;5033559;28;20033;-65
2022/04/06 01:02:25;;;;;;;9.27;7.40;;;;;;;3.40;65.14;97673.19;5033000;28;20038;-65
2022/04/06 01:04:50;;;;;;;8.85;7.13;;;;;;;3.12;65.42;97625.28;5033243;28;20032;-65
2022/04/06 01:07:18;;;;;;;9.60;7.95;;;;;;;3.43;64.82;97667.66;5033471;28;20029;-64
2022/04/06 01:09:44;;;;;;;8.65;7.30;;;;;;;3.42;64.99;97669.44;5032163;28;20446;-64
2022/04/06 01:12:09;;;;;;;9.43;7.57;;;;;;;3.44;64.76;97679.91;5033128;28;20083;-65
2022/04/06 01:14:37;;;;;;;9.18;7.30;;;;;;;3.40;64.97;97665.28;5033272;28;20109;-67
2022/04/06 01:17:07;;;;;;;7.95;6.85;;;;;;;3.26;64.43;97656.69;5033167;28;20063;-65
2022/04/06 01:19:34;;;;;;;11.45;6.97;;;;;;;3.42;64.48;97674.72;5032993;28;20100;-65
2022/04/06 01:22:01;;;;;;;10.55;7.82;;;;;;;3.35;64.92;97681.53;5032750;28;20037;-64
2022/04/06 01:24:27;;;;;;;8.70;7.53;;;;;;;3.32;64.73;97686.22;5032700;28;20132;-64
2022/04/06 01:26:53;;;;;;;9.75;7.28;;;;;;;3.36;64.99;97682.34;5033064;28;20033;-65
2022/04/06 01:29:19;;;;;;;8.85;7.10;;;;;;;3.41;65.15;97690.75;5032860;28;20101;-64
2022/04/06 01:31:46;;;;;;;8.75;7.07;;;;;;;3.30;64.61;97658.09;5032481;28;20182;-64
2022/04/06 01:34:11;;;;;;;9.07;7.10;;;;;;;3.45;64.93;97687.69;5032923;28;20426;-63
2022/04/06 01:36:37;;;;;;;8.65;7.10;;;;;;;3.46;64.93;97688.53;5032898;28;20109;-65
2022/04/06 01:39:02;;;;;;;10.02;7.18;;;;;;;3.49;64.73;97692.72;5032451;28;20026;-65
2022/04/06 01:41:34;;;;;;;8.70;7.00;;;;;;;3.51;64.72;97674.94;5032316;28;20037;-65
2022/04/06 01:44:01;;;;;;;8.88;7.07;;;;;;;3.59;64.61;97689.16;5032173;28;20029;-65
2022/04/06 01:46:26;;;;;;;8.75;7.18;;;;;;;3.60;64.02;97695.28;5032780;28;20056;-64
2022/04/06 01:54:24;;;;;;;7.70;6.03;;;;;;;3.54;64.19;97695.81;5032097;28;20037;-65
2022/04/06 01:56:50;;;;;;;7.25;6.43;;;;;;;3.52;63.94;97698.59;5032582;28;20615;-65
2022/04/06 01:59:15;;;;;;;7.10;5.63;;;;;;;3.50;63.71;97716.41;5031874;28;20044;-58
2022/04/06 02:01:43;;;;;;;7.45;5.72;;;;;;;3.49;63.70;97698.00;5032180;28;20034;-64
2022/04/06 02:04:14;;;;;;;7.90;6.25;;;;;;;3.50;64.14;97721.69;5031693;28;20083;-62
2022/04/06 02:06:40;;;;;;;7.00;5.28;;;;;;;3.39;64.04;97721.78;5032069;28;20029;-64
2022/04/06 02:09:06;;;;;;;6.68;4.97;;;;;;;3.11;63.69;97679.13;5031963;28;20433;-63
2022/04/06 02:11:31;;;;;;;6.05;4.55;;;;;;;3.38;64.02;97728.06;5031712;28;20038;-64
2022/04/06 02:13:57;;;;;;;6.07;4.93;;;;;;;3.35;63.87;97744.16;5031725;28;20238;-64
2022/04/06 02:16:23;;;;;;;8.10;4.72;;;;;;;3.12;63.61;97707.25;5031280;28;20069;-63
2022/04/06 02:18:50;;;;;;;5.40;4.28;;;;;;;3.24;63.68;97751.19;5030440;28;20029;-63
2022/04/06 02:21:15;;;;;;;7.00;3.83;;;;;;;2.98;63.45;97711.06;5032147;28;20653;-64
2022/04/06 02:23:41;;;;;;;3.80;3.38;;;;;;;3.15;63.63;97751.97;5031645;28;20116;-63
2022/04/06 02:26:06;;;;;;;4.53;3.17;;;;;;;3.21;63.25;97759.38;5031311;28;20029;-64
2022/04/06 02:28:32;;;;;;;3.95;3.15;;;;;;;3.15;62.68;97757.25;5031644;28;20037;-66
2022/04/06 02:30:57;;;;;;;7.68;2.90;;;;;;;3.22;62.83;97773.44;5031303;28;20105;-66
2022/04/06 02:33:23;;;;;;;3.05;2.70;;;;;;;3.20;62.77;97770.09;5031171;28;20120;-61
2022/04/06 02:35:48;;;;;;;3.95;2.60;;;;;;;3.02;62.67;97762.75;5031659;28;20037;-61
2022/04/06 02:38:14;;;;;;;3.42;2.60;;;;;;;2.96;62.74;97781.72;5031659;28;20060;-60
2022/04/06 02:40:39;;;;;;;2.50;1.92;;;;;;;2.87;62.11;97772.75;5031046;28;20124;-61
2022/04/06 02:43:05;;;;;;;2.45;2.00;;;;;;;2.77;61.72;97771.81;5031456;28;20103;-63
2022/04/06 02:45:30;;;;;;;3.25;1.90;;;;;;;2.67;61.19;97796.38;5031612;28;20099;-63
2022/04/06 02:47:56;;;;;;;1.90;1.60;;;;;;;2.61;61.04;97796.84;5031013;28;20037;-65
2022/04/06 02:50:21;;;;;;;1.92;1.45;;;;;;;2.48;61.06;97810.19;5030998;28;20095;-63
2022/04/06 02:52:47;;;;;;;2.08;1.60;;;;;;;2.27;61.01;97786.34;5031643;28;20039;-65
2022/04/06 02:55:13;;;;;;;1.80;1.38;;;;;;;2.31;61.13;97810.72;5031639;28;20061;-63
2022/04/06 02:57:41;;;;;;;2.05;1.60;;;;;;;2.28;61.19;97820.53;5030273;28;20385;-63
2022/04/06 03:00:07;;;;;;;3.28;1.52;;;;;;;2.23;61.20;97813.97;5031180;28;20034;-65
2022/04/06 03:02:33;;;;;;;1.70;1.50;;;;;;;2.21;61.19;97826.44;5031648;28;20037;-64
2022/04/06 03:04:58;;;;;;;1.90;1.70;;;;;;;2.17;61.17;97823.19;5031132;28;20416;-64
2022/04/06 03:07:24;;;;;;;3.63;1.38;;;;;;;2.18;62.10;97835.44;5030702;28;20175;-64
2022/04/06 03:09:49;;;;;;;2.70;1.60;;;;;;;2.25;61.23;97849.00;5030930;28;20064;-62
2022/04/06 03:12:15;;;;;;;2.53;1.15;;;;;;;2.18;60.40;97838.06;5031450;28;20033;-64
2022/04/06 03:14:41;;;;;;;3.92;1.40;;;;;;;2.14;59.78;97840.09;5031061;28;20461;-65
2022/04/06 03:17:06;;;;;;;2.83;1.20;;;;;;;2.15;59.57;97860.25;5030480;28;20458;-64
2022/04/06 03:19:32;;;;;;;1.38;1.10;;;;;;;2.12;59.51;97862.31;5030661;28;20116;-65
2022/04/06 03:21:57;;;;;;;1.08;0.85;;;;;;;2.13;58.94;97864.81;5030949;28;20029;-64
2022/04/06 03:24:23;;;;;;;0.88;0.60;;;;;;;2.20;57.95;97875.75;5031026;28;20032;-65
2022/04/06 03:26:48;;;;;;;1.33;0.60;;;;;;;2.23;57.80;97872.88;5030697;28;20045;-65
2022/04/06 03:29:14;;;;;;;0.77;0.40;;;;;;;2.31;56.80;97882.84;5030039;28;20041;-63
2022/04/06 03:31:40;;;;;;;0.85;0.47;;;;;;;2.28;55.98;97886.56;5030719;28;20221;-64
2022/04/06 03:34:05;;;;;;;0.55;0.40;;;;;;;2.33;55.68;97888.84;5030669;28;20524;-63
2022/04/06 03:36:31;;;;;;;1.02;0.45;;;;;;;2.38;55.42;97889.31;5030375;28;20044;-64
2022/04/06 03:38:56;;;;;;;0.70;0.30;;;;;;;2.60;55.04;97903.50;5030216;28;20105;-64
2022/04/06 03:41:22;;;;;;;2.75;0.40;;;;;;;2.75;54.20;97916.47;5030973;28;20474;-64
2022/04/06 03:43:47;;;;;;;1.45;0.40;;;;;;;2.85;53.44;97918.25;5030915;28;20045;-64
2022/04/06 03:46:14;;;;;;;1.48;0.40;;;;;;;2.93;53.18;97915.00;5030103;28;20116;-62
2022/04/06 03:48:40;;;;;;;1.13;0.82;;;;;;;2.97;53.18;97924.38;5030172;28;20033;-65
2022/04/06 03:51:05;;;;;;;0.68;0.40;;;;;;;2.99;52.84;97925.09;5029393;28;20063;-64
2022/04/06 03:53:31;;;;;;;0.82;0.30;;;;;;;3.03;52.75;97928.34;5030151;28;20056;-64
2022/04/06 03:55:57;;;;;;;0.52;0.38;;;;;;;3.11;52.75;97933.84;5029005;28;20057;-64
2022/04/06 03:58:22;;;;;;;0.80;0.32;;;;;;;3.35;51.98;97930.16;5028982;28;20445;-59
2022/04/06 04:00:48;;;;;;;0.77;0.30;;;;;;;3.73;50.82;97941.22;5030216;28;20060;-65
2022/04/06 04:03:13;;;;;;;0.20;0.20;;;;;;;3.94;49.93;97951.81;5030336;28;20488;-64
2022/04/06 04:05:39;;;;;;;0.80;0.40;;;;;;;3.92;50.74;97947.63;5030193;28;20116;-63
2022/04/06 04:08:04;;;;;;;0.30;0.28;;;;;;;4.08;49.48;97939.25;5032075;28;20030;-65
2022/04/06 04:10:30;;;;;;;0.93;0.32;;;;;;;4.15;49.47;97959.78;5033888;28;20373;-64
2022/04/06 04:12:56;;;;;;;0.88;0.40;;;;;;;4.62;48.17;97966.47;5033972;28;20092;-64
2022/04/06 04:15:21;;;;;;;0.73;0.30;;;;;;;5.17;46.43;97968.75;5034101;28;20462;-64
2022/04/06 04:17:47;;;;;;;0.30;0.17;;;;;;;5.72;45.62;97964.81;5033958;28;20427;-64
2022/04/06 04:20:12;;;;;;;0.85;0.25;;;;;;;6.37;43.39;97967.84;5033602;28;20049;-64
2022/04/06 04:22:37;;;;;;;0.50;0.30;;;;;;;6.96;41.82;97951.72;5034017;28;20128;-64
2022/04/06 04:25:03;;;;;;;0.40;0.30;;;;;;;7.71;40.02;97966.66;5033881;28;20034;-65
2022/04/06 04:27:29;;;;;;;0.20;0.20;;;;;;;8.06;38.92;97981.00;5033720;28;20346;-66
2022/04/06 04:29:55;;;;;;;1.17;0.40;;;;;;;8.29;37.71;97975.19;5033449;28;20515;-66
2022/04/06 04:32:22;;;;;;;1.00;0.40;;;;;;;8.60;38.04;97978.28;5034231;28;20043;-65
2022/04/06 04:34:48;;;;;;;0.88;0.45;;;;;;;9.38;35.78;97969.44;5031924;28;20072;-66
2022/04/06 04:37:13;;;;;;;0.60;0.38;;;;;;;10.05;34.50;97987.28;5033746;28;20424;-65
2022/04/06 04:39:39;;;;;;;1.13;0.40;;;;;;;10.51;33.88;97981.47;5034095;28;20052;-64
2022/04/06 04:42:05;;;;;;;1.27;0.40;;;;;;;10.81;32.72;97987.09;5033541;28;20025;-63
2022/04/06 04:44:31;;;;;;;0.90;0.57;;;;;;;11.18;32.20;98000.91;5033275;28;20039;-65
2022/04/06 04:46:57;;;;;;;1.85;0.50;;;;;;;11.98;30.90;98007.03;5033578;28;20033;-62
2022/04/06 04:49:22;;;;;;;0.45;0.35;;;;;;;12.51;29.68;98003.63;5033754;28;20489;-64
2022/04/06 04:51:48;;;;;;;0.45;0.40;;;;;;;13.00;29.06;98010.34;5032895;28;20041;-61
2022/04/06 04:54:13;;;;;;;0.70;0.40;;;;;;;13.74;27.69;98005.13;5033337;28;20033;-64
2022/04/06 04:56:41;;;;;;;0.80;0.47;;;;;;;14.88;26.92;98014.31;5033481;28;20029;-64
2022/04/06 04:59:07;;;;;;;0.60;0.45;;;;;;;16.78;23.95;98022.84;5033790;28;20061;-63
2022/04/06 05:01:33;;;;;;;7.18;0.40;;;;;;;17.85;21.94;98020.94;5032685;28;20042;-62
2022/04/06 05:03:58;;;;;;;0.70;0.40;;;;;;;17.54;22.34;98019.81;5033268;28;20037;-63
2022/04/06 05:06:24;;;;;;;1.35;0.40;;;;;;;17.89;21.89;98030.28;5033787;28;20074;-63
2022/04/06 05:08:50;;;;;;;1.13;0.50;;;;;;;16.98;22.72;98008.50;5033373;28;20029;-64
2022/04/06 05:11:15;;;;;;;1.00;0.60;;;;;;;15.92;23.86;98035.19;5032744;28;20041;-63
2022/04/06 05:13:42;;;;;;;1.45;0.47;;;;;;;14.54;25.63;98037.41;5033051;28;20026;-62
2022/04/06 05:16:07;;;;;;;0.40;0.40;;;;;;;13.32;27.35;98040.59;5033298;28;20148;-62
2022/04/06 05:18:33;;;;;;;0.30;0.30;;;;;;;12.18;28.65;98042.28;5033137;28;20029;-63
2022/04/06 05:20:59;;;;;;;2.33;0.43;;;;;;;11.12;30.49;98047.13;5032272;28;20029;-66
2022/04/06 05:23:24;;;;;;;1.90;0.30;;;;;;;10.06;31.76;98053.13;5032576;28;20572;-63
2022/04/06 05:25:50;;;;;;;0.60;0.30;;;;;;;9.49;33.31;98060.00;5031187;28;20026;-63
2022/04/06 05:28:16;;;;;;;0.40;0.40;;;;;;;10.26;31.14;98063.53;5031401;28;20116;-64
2022/04/06 05:30:41;;;;;;;0.52;0.45;;;;;;;10.41;31.02;98055.72;5031915;28;20045;-63
2022/04/06 05:33:07;;;;;;;0.95;0.40;;;;;;;11.69;28.37;98066.69;5032181;28;20045;-64
2022/04/06 05:35:33;;;;;;;1.00;0.40;;;;;;;12.38;27.10;98063.28;5032533;28;20401;-64
2022/04/06 05:37:58;;;;;;;0.75;0.30;;;;;;;13.64;25.44;98038.53;5032698;28;20030;-62
2022/04/06 05:40:24;;;;;;;0.55;0.38;;;;;;;13.96;24.75;98069.72;5032696;28;20029;-63
2022/04/06 05:42:50;;;;;;;0.32;0.30;;;;;;;14.61;23.71;98064.41;5032307;28;20026;-65
2022/04/06 05:45:16;;;;;;;0.40;0.28;;;;;;;16.04;22.40;98084.03;5032287;28;20033;-63
2022/04/06 05:47:42;;;;;;;1.55;0.40;;;;;;;16.34;22.06;98089.94;5032438;28;20112;-64
2022/04/06 05:50:09;;;;;;;1.45;0.60;;;;;;;15.72;23.15;98097.16;5031919;28;20104;-64
2022/04/06 05:52:35;;;;;;;2.28;0.65;;;;;;;15.38;23.59;98104.19;5031902;28;20033;-64
2022/04/06 05:55:01;;;;;;;1.13;0.60;;;;;;;17.11;21.44;98102.28;5031874;28;20107;-63
2022/04/06 05:57:28;;;;;;;0.50;0.40;;;;;;;20.40;17.82;98103.81;5031955;28;20022;-61
2022/04/06 05:59:53;;;;;;;1.55;0.60;;;;;;;23.37;15.61;98099.72;5032290;28;20124;-65
2022/04/06 06:02:19;;;;;;;2.65;0.60;;;;;;;25.94;13.08;98100.91;5031665;28;20041;-63
2022/04/06 06:04:45;;;;;;;0.77;0.60;;;;;;;27.71;11.36;98104.69;5031827;28;20068;-65
2022/04/06 06:07:11;;;;;;;0.40;0.40;;;;;;;29.22;10.13;98117.38;5031704;28;20033;-66
2022/04/06 06:09:37;;;;;;;1.90;0.60;;;;;;;30.22;9.67;98123.53;5031579;28;20423;-65
2022/04/06 06:12:03;;;;;;;1.08;0.40;;;;;;;31.26;8.37;98124.84;5031704;28;20029;-62
2022/04/06 06:14:30;;;;;;;3.35;0.57;;;;;;;32.49;8.03;98124.41;5031812;28;20049;-64
2022/04/06 06:16:58;;;;;;;1.67;0.85;;;;;;;32.94;7.68;98128.41;5031922;28;20040;-64
2022/04/06 06:19:24;;;;;;;0.70;0.40;;;;;;;32.88;7.15;98137.97;5031981;28;20451;-64
2022/04/06 06:21:50;;;;;;;1.40;0.40;;;;;;;33.16;6.93;98140.63;5031301;28;20044;-64
2022/04/06 06:24:15;;;;;;;1.10;0.60;;;;;;;31.84;7.64;98131.81;5031798;28;20033;-62
2022/04/06 06:26:43;;;;;;;2.00;0.60;;;;;;;32.63;7.07;98131.88;5030683;28;20025;-64
2022/04/06 06:29:09;;;;;;;4.85;0.50;;;;;;;33.51;6.78;98135.31;5031472;28;20501;-64
2022/04/06 06:31:35;;;;;;;2.47;1.17;;;;;;;34.56;5.84;98145.22;5029927;28;20037;-65
2022/04/06 06:34:00;;;;;;;0.68;0.50;;;;;;;35.06;5.52;98152.28;5031868;28;20116;-62
2022/04/06 06:36:27;;;;;;;1.15;0.50;;;;;;;33.09;6.32;98143.84;5032055;28;20029;-63
2022/04/06 06:38:53;;;;;;;0.70;0.52;;;;;;;32.66;6.80;98136.78;5031251;28;20025;-64
2022/04/06 06:41:19;;;;;;;3.25;0.60;;;;;;;32.42;6.53;98121.25;5030942;28;20504;-65
2022/04/06 06:43:48;;;;;;;1.00;0.63;;;;;;;33.45;6.58;98153.22;5031818;28;20021;-65
2022/04/06 06:46:17;;;;;;;1.27;0.60;;;;;;;34.63;5.62;98151.94;5031313;28;20562;-64
2022/04/06 06:48:43;;;;;;;2.05;0.60;;;;;;;35.74;5.25;98150.88;5030841;28;20037;-66
2022/04/06 06:51:08;;;;;;;0.63;0.43;;;;;;;36.78;4.49;98139.50;5031375;28;20040;-64
2022/04/06 06:53:34;;;;;;;1.52;0.50;;;;;;;37.02;4.96;98163.13;5031403;28;20128;-63
2022/04/06 06:55:59;;;;;;;1.38;0.80;;;;;;;37.27;4.25;98166.81;5031525;28;20034;-63
2022/04/06 06:58:25;;;;;;;3.72;1.00;;;;;;;37.44;3.41;98139.91;5037482;28;20052;-63
2022/04/06 07:00:50;;;;;;;1.40;1.00;;;;;;;37.62;3.35;98160.09;5038364;28;20108;-63
2022/04/06 07:03:16;;;;;;;5.57;1.25;;;;;;;37.53;3.89;98164.97;5047976;28;20049;-66
2022/04/06 07:05:42;;;;;;;3.85;0.98;;;;;;;36.92;3.80;98161.53;5046569;28;20093;-63
2022/04/06 07:08:07;;;;;;;2.67;0.65;;;;;;;37.58;3.40;98148.78;5050435;28;20029;-63
2022/04/06 07:10:33;;;;;;;2.42;1.17;;;;;;;38.19;3.29;98158.44;5040801;28;20045;-64
2022/04/06 07:12:59;;;;;;;2.13;1.08;;;;;;;37.26;3.32;98175.53;5033231;28;20044;-62
2022/04/06 07:15:25;;;;;;;1.52;0.75;;;;;;;36.79;3.69;98174.59;5050056;28;20051;-66
2022/04/06 07:17:53;;;;;;;4.63;0.90;;;;;;;37.33;3.69;98162.66;5050054;28;20353;-67
2022/04/06 07:20:19;;;;;;;3.25;1.40;;;;;;;37.76;2.88;98160.59;5050365;28;20028;-67
2022/04/06 07:22:45;;;;;;;2.90;1.00;;;;;;;38.50;2.74;98163.78;5049248;28;20385;-66
2022/04/06 07:25:10;;;;;;;4.20;1.10;;;;;;;39.22;2.72;98160.31;5048992;28;20032;-70
2022/04/06 07:27:37;;;;;;;2.58;0.80;;;;;;;39.33;2.48;98160.63;5050324;28;20029;-67
2022/04/06 07:30:08;;;;;;;1.95;0.80;;;;;;;40.25;2.62;98170.19;5050367;28;20438;-69
2022/04/06 07:32:35;;;;;;;0.80;0.70;;;;;;;39.72;2.39;98165.69;5050546;28;20044;-68
2022/04/06 07:35:03;;;;;;;1.67;1.00;;;;;;;39.82;2.50;98170.78;5050615;28;20044;-66
2022/04/06 07:37:58;;;;;;;4.20;1.02;;;;;;;41.70;3.42;98181.72;5049758;28;20492;-68
2022/04/06 07:40:24;;;;;;;3.63;1.17;;;;;;;40.31;2.13;98182.81;5049090;28;20033;-64
2022/04/06 07:42:51;;;;;;;2.28;0.80;;;;;;;39.40;2.25;98176.84;5049971;28;20082;-66
2022/04/06 07:45:18;;;;;;;0.70;0.70;;;;;;;38.38;2.51;98179.38;5049435;28;20029;-64
2022/04/06 07:47:49;;;;;;;3.65;0.77;;;;;;;38.44;2.74;98178.00;5049787;28;20029;-65
2022/04/06 07:50:17;;;;;;;2.13;0.70;;;;;;;37.84;2.73;98180.38;5048905;28;20040;-66
2022/04/06 07:52:43;;;;;;;2.92;0.77;;;;;;;37.56;3.02;98167.88;5050238;28;20094;-66
2022/04/06 07:55:11;;;;;;;2.42;1.20;;;;;;;37.29;3.12;98184.03;5048968;28;20029;-65
2022/04/06 07:57:38;;;;;;;1.48;0.80;;;;;;;36.63;2.88;98185.50;5029358;28;20060;-63
2022/04/06 08:00:09;;;;;;;1.35;0.90;;;;;;;36.28;3.41;98185.72;5030409;28;20359;-65
2022/04/06 08:02:35;;;;;;;2.03;0.77;;;;;;;34.87;3.81;98170.09;5035065;28;20104;-66
2022/04/06 08:05:04;;;;;;;4.97;1.02;;;;;;;32.58;4.78;98176.31;5030075;28;20033;-68
2022/04/06 08:07:30;;;;;;;3.55;1.10;;;;;;;29.29;6.34;98169.41;5029102;28;20069;-65
2022/04/06 08:09:56;;;;;;;1.77;0.60;;;;;;;26.15;8.05;98153.91;5029872;28;20087;-66
2022/04/06 08:12:21;;;;;;;2.25;0.70;;;;;;;23.19;9.55;98166.28;5029683;28;20072;-69
2022/04/06 08:14:48;;;;;;;3.17;0.90;;;;;;;20.53;11.08;98169.94;5029981;28;20458;-68
2022/04/06 08:17:14;;;;;;;3.05;0.70;;;;;;;18.26;12.48;98199.50;5043587;28;20038;-63
2022/04/06 08:19:40;;;;;;;1.40;0.80;;;;;;;16.15;14.08;98185.19;5029913;28;20056;-62
2022/04/06 08:22:06;;;;;;;1.70;0.93;;;;;;;14.67;16.02;98189.41;5046997;28;20466;-64
2022/04/06 08:24:31;;;;;;;4.25;0.82;;;;;;;13.57;17.33;98188.22;5030344;28;20041;-65
2022/04/06 08:26:57;;;;;;;5.90;1.55;;;;;;;12.65;18.73;98192.63;5029306;28;20655;-61
2022/04/06 08:29:22;;;;;;;2.97;0.80;;;;;;;11.97;18.27;98195.78;5032152;28;20041;-62
2022/04/06 08:31:48;;;;;;;0.90;0.75;;;;;;;11.31;18.77;98201.28;5038223;28;20051;-63
2022/04/06 08:34:14;;;;;;;3.17;0.90;;;;;;;10.67;19.87;98205.44;5045591;28;20034;-62
2022/04/06 08:36:41;;;;;;;2.60;1.42;;;;;;;10.26;21.36;98213.31;5038650;28;20120;-63
2022/04/06 08:39:06;;;;;;;2.03;1.00;;;;;;;9.96;20.75;98192.28;5030672;28;20065;-65
2022/04/06 08:41:32;;;;;;;2.58;0.77;;;;;;;9.68;20.46;98194.34;5029741;28;20441;-61
2022/04/06 08:43:57;;;;;;;2.00;0.70;;;;;;;9.44;21.84;98203.88;5029391;28;20030;-63
2022/04/06 08:46:24;;;;;;;1.38;0.75;;;;;;;9.25;21.10;98205.75;5033248;28;20033;-64
2022/04/06 08:48:54;;;;;;;1.50;0.80;;;;;;;8.99;20.13;98211.88;5050317;28;20108;-67
2022/04/06 08:51:20;;;;;;;2.88;0.90;;;;;;;8.57;21.20;98191.13;5049244;28;20116;-67
2022/04/06 08:53:47;;;;;;;5.03;1.00;;;;;;;8.38;21.41;98214.25;5041750;28;20021;-66
2022/04/06 08:56:13;;;;;;;5.35;0.90;;;;;;;8.27;21.67;98214.47;5045973;28;20021;-66
2022/04/06 08:58:40;;;;;;;2.83;0.88;;;;;;;8.24;21.71;98215.59;5051462;28;20041;-66
2022/04/06 09:01:06;;;;;;;0.65;0.50;;;;;;;8.23;21.60;98210.44;5045528;28;20029;-66
2022/04/06 09:03:31;;;;;;;1.88;0.60;;;;;;;8.26;22.73;98207.47;5053596;28;20102;-65
2022/04/06 09:06:09;;;;;;;1.60;0.60;;;;;;;8.42;20.44;98212.94;5033313;28;20035;-63
2022/04/06 09:09:00;;;;;;;1.98;1.10;;;;;;;8.40;20.98;98201.59;5034079;28;20022;-62
2022/04/06 09:11:29;;;;;;;5.38;0.57;;;;;;;8.03;20.40;98157.22;5052085;28;20123;-63
2022/04/06 09:14:00;;;;;;;2.83;0.52;;;;;;;8.24;21.46;98207.59;5052096;28;20032;-65
2022/04/06 09:16:32;;;;;;;2.45;0.75;;;;;;;8.26;21.73;98210.13;5052261;28;20159;-64
2022/04/06 09:19:12;;;;;;;1.20;0.60;;;;;;;8.27;20.48;98196.63;5052855;28;20064;-63
2022/04/06 09:21:48;;;;;;;1.55;0.57;;;;;;;8.24;21.40;98204.09;5052503;28;20040;-65
2022/04/06 09:24:19;;;;;;;2.83;0.47;;;;;;;8.14;21.82;98212.97;5032411;28;20040;-63
2022/04/06 09:27:05;;;;;;;1.45;0.60;;;;;;;8.30;21.29;98200.84;5032406;28;20385;-64
2022/04/06 09:29:31;;;;;;;1.30;0.50;;;;;;;8.14;21.12;98196.97;5032001;28;20378;-62
2022/04/06 09:32:06;;;;;;;5.75;0.70;;;;;;;8.17;21.81;98211.84;5035987;28;20033;-62
2022/04/06 09:34:33;;;;;;;3.55;0.75;;;;;;;8.07;21.13;98225.22;5052071;28;20103;-62
2022/04/06 09:36:58;;;;;;;0.70;0.50;;;;;;;7.92;21.89;98205.34;5052006;28;20405;-64
2022/04/06 09:39:44;;;;;;;1.13;0.32;;;;;;;8.03;20.66;98216.66;5052430;28;20043;-62
2022/04/06 09:42:17;;;;;;;1.65;0.55;;;;;;;7.65;21.56;98191.03;5051939;28;20041;-64
2022/04/06 09:47:40;;;;;;;1.33;0.40;;;;;;;7.70;21.23;98194.09;5046350;28;20032;-66
2022/04/06 09:50:14;;;;;;;0.93;0.60;;;;;;;7.78;20.42;98204.88;5049540;28;20033;-64
2022/04/06 09:52:42;;;;;;;4.60;0.50;;;;;;;7.76;20.81;98198.84;5051925;28;20036;-63
2022/04/06 09:55:10;;;;;;;0.93;0.40;;;;;;;7.88;21.20;98208.31;5044458;28;20037;-65
2022/04/06 09:57:51;;;;;;;1.88;0.60;;;;;;;8.05;20.59;98200.53;5032167;28;20045;-66
2022/04/06 10:00:25;;;;;;;0.75;0.47;;;;;;;8.17;21.20;98207.34;5032599;28;20418;-68
2022/04/06 10:02:57;;;;;;;3.97;0.90;;;;;;;8.26;22.04;98199.47;5040907;28;20120;-65
2022/04/06 10:05:24;;;;;;;2.15;0.65;;;;;;;8.22;22.73;98172.25;5050267;28;20095;-65
2022/04/06 10:07:52;;;;;;;1.52;0.90;;;;;;;8.59;21.43;98205.16;5051573;28;20421;-65
2022/04/06 10:10:21;;;;;;;1.65;0.73;;;;;;;8.62;21.06;98204.84;5044254;28;20041;-66
2022/04/06 10:12:48;;;;;;;1.27;0.50;;;;;;;8.32;20.78;98166.84;5030082;28;20083;-66
2022/04/06 10:15:14;;;;;;;1.00;0.55;;;;;;;8.08;21.01;98162.94;5031510;28;20029;-63
2022/04/06 10:17:40;;;;;;;1.17;0.40;;;;;;;8.25;21.22;98208.44;5036199;28;20021;-68
2022/04/06 10:20:11;;;;;;;2.22;0.57;;;;;;;8.25;21.54;98197.78;5051770;28;20029;-64
2022/04/06 10:22:48;;;;;;;1.98;0.45;;;;;;;8.17;20.74;98218.00;5051111;28;20024;-64
2022/04/06 10:25:21;;;;;;;1.30;0.30;;;;;;;7.87;21.16;98189.84;5051483;28;20033;-65
2022/04/06 10:27:53;;;;;;;1.05;0.50;;;;;;;7.89;21.07;98194.00;5051540;28;20055;-65
2022/04/06 10:30:23;;;;;;;1.30;0.80;;;;;;;7.83;22.50;98204.41;5050392;28;20049;-67
2022/04/06 10:32:53;;;;;;;1.40;0.75;;;;;;;7.79;23.33;98209.22;5036203;28;20528;-65
2022/04/06 10:35:22;;;;;;;3.03;0.80;;;;;;;7.67;22.88;98218.34;5051432;28;20032;-62
2022/04/06 10:37:49;;;;;;;1.05;0.45;;;;;;;7.69;22.15;98211.06;5050744;28;20029;-64
2022/04/06 10:40:15;;;;;;;1.02;0.70;;;;;;;7.53;22.23;98167.25;5051087;28;20039;-64
2022/04/06 10:42:42;;;;;;;5.38;0.60;;;;;;;7.87;22.13;98206.66;5051198;28;20388;-63
2022/04/06 10:45:28;;;;;;;1.63;0.50;;;;;;;7.89;22.29;98209.19;5051766;28;20139;-66
2022/04/06 10:48:14;;;;;;;1.13;0.63;;;;;;;7.74;22.53;98204.31;5046779;28;20044;-65
2022/04/06 10:50:42;;;;;;;3.45;1.50;;;;;;;7.56;23.35;98200.72;5047721;28;20567;-65
2022/04/06 10:53:20;;;;;;;5.63;1.40;;;;;;;7.63;23.05;98204.50;5051155;28;20422;-65
2022/04/06 10:55:57;;;;;;;5.57;1.73;;;;;;;7.59;23.31;98195.97;5051192;28;20041;-64
2022/04/06 10:58:25;;;;;;;1.42;0.52;;;;;;;7.52;23.51;98200.19;5050872;28;20033;-65
2022/04/06 11:01:13;;;;;;;0.82;0.40;;;;;;;7.56;22.89;98198.91;5050552;28;20029;-64
2022/04/06 11:03:40;;;;;;;3.33;0.70;;;;;;;7.44;23.30;98186.75;5051311;28;20063;-63
2022/04/06 11:06:06;;;;;;;3.45;0.47;;;;;;;7.51;23.50;98198.50;5049876;28;20052;-65
2022/04/06 11:11:38;;;;;;;3.35;0.80;;;;;;;7.82;22.21;98203.59;5050858;28;20465;-64
2022/04/06 11:14:04;;;;;;;1.40;0.40;;;;;;;7.84;21.24;98188.28;5050872;28;20135;-65
2022/04/06 11:16:44;;;;;;;1.75;0.52;;;;;;;7.93;21.04;98183.06;5050677;28;20061;-65
2022/04/06 11:19:10;;;;;;;7.78;0.65;;;;;;;7.74;21.70;98192.84;5050406;28;20041;-64
2022/04/06 11:21:46;;;;;;;1.00;0.77;;;;;;;7.61;21.43;98190.50;5050789;28;20047;-64
2022/04/06 11:24:16;;;;;;;1.75;0.40;;;;;;;7.38;20.91;98200.63;5051410;28;20086;-63
2022/04/06 11:26:41;;;;;;;1.20;0.50;;;;;;;7.15;21.17;98184.97;5050766;28;20076;-65
2022/04/06 11:29:07;;;;;;;2.15;0.60;;;;;;;7.12;21.03;98174.63;5050351;28;20499;-64
2022/04/06 11:31:32;;;;;;;1.50;0.50;;;;;;;7.13;21.29;98177.16;5050547;28;20041;-64
2022/04/06 11:33:58;;;;;;;0.95;0.50;;;;;;;7.26;20.83;98192.84;5050439;28;20143;-66
2022/04/06 11:36:23;;;;;;;4.57;0.60;;;;;;;7.32;20.86;98181.59;5050230;28;20127;-63
2022/04/06 11:38:50;;;;;;;4.05;0.88;;;;;;;7.42;20.42;98192.22;5049915;28;20116;-64
2022/04/06 11:41:18;;;;;;;4.00;0.47;;;;;;;7.40;20.78;98182.69;5049378;28;20029;-63
2022/04/06 11:43:44;;;;;;;1.58;0.77;;;;;;;7.36;20.55;98187.47;5050270;28;20021;-64
2022/04/06 11:46:09;;;;;;;1.85;0.88;;;;;;;7.33;20.44;98180.63;5050233;28;20043;-66
2022/04/06 11:48:43;;;;;;;3.53;0.60;;;;;;;7.32;20.72;98192.25;5050063;28;20044;-64
2022/04/06 11:51:09;;;;;;;1.67;0.70;;;;;;;7.01;20.41;98146.34;5050444;28;20469;-65
2022/04/06 11:53:36;;;;;;;2.58;1.00;;;;;;;7.13;21.35;98176.31;5050141;28;20040;-63